createdAt,value
2018-03-01T00:01:16.875Z,48.47
2018-03-01T00:03:44.390Z,48.10
2018-03-01T00:06:11.917Z,48.08
2018-03-01T00:08:39.433Z,48.46
2018-03-01T00:11:06.944Z,48.38
2018-03-01T00:13:34.479Z,48.55
2018-03-01T00:16:02.029Z,47.97
2018-03-01T00:18:29.651Z,47.82
2018-03-01T00:20:57.620Z,48.04
2018-03-01T00:23:25.232Z,48.17
2018-03-01T00:25:52.738Z,47.98
2018-03-01T00:28:20.232Z,48.44
2018-03-01T00:30:47.834Z,48.42
2018-03-01T00:33:15.467Z,48.43
2018-03-01T00:35:42.994Z,48.97
2018-03-01T00:38:10.584Z,49.27
2018-03-01T00:40:38.111Z,48.97
2018-03-01T00:43:06.092Z,48.73
2018-03-01T00:45:33.668Z,49.02
2018-03-01T00:48:01.199Z,49.30
2018-03-01T00:50:28.725Z,49.43
2018-03-01T00:52:56.255Z,49.67
2018-03-01T00:55:23.970Z,49.58
2018-03-01T00:57:51.463Z,49.95
2018-03-01T01:00:18.968Z,49.67
2018-03-01T01:02:46.474Z,49.90
2018-03-01T01:05:13.986Z,50.28
2018-03-01T01:07:41.513Z,50.87
2018-03-01T01:10:09.031Z,50.54
2018-03-01T01:12:36.570Z,50.64
2018-03-01T01:15:04.077Z,50.82
2018-03-01T01:17:31.615Z,50.90
2018-03-01T01:19:59.264Z,50.70
2018-03-01T01:22:26.804Z,50.97
2018-03-01T01:24:54.304Z,51.35
2018-03-01T01:27:21.818Z,51.34
2018-03-01T01:29:49.368Z,51.23
2018-03-01T01:32:16.938Z,51.51
2018-03-01T01:34:44.477Z,51.76
2018-03-01T01:37:11.987Z,51.98
2018-03-01T01:39:39.512Z,52.04
2018-03-01T01:42:07.001Z,52.58
2018-03-01T01:44:34.532Z,51.88
2018-03-01T01:47:02.030Z,51.92
2018-03-01T01:49:29.614Z,51.63
2018-03-01T01:51:57.173Z,51.92
2018-03-01T01:54:25.365Z,51.91
2018-03-01T01:56:52.867Z,52.19
2018-03-01T01:59:20.351Z,51.98
2018-03-01T02:01:47.874Z,51.89
2018-03-01T02:04:15.404Z,52.04
2018-03-01T02:06:43.016Z,51.91
2018-03-01T02:09:10.656Z,52.01
2018-03-01T02:11:39.673Z,51.98
2018-03-01T02:14:07.568Z,51.44
2018-03-01T02:16:35.132Z,51.75
2018-03-01T02:19:02.665Z,51.28
2018-03-01T02:21:30.197Z,51.26
2018-03-01T02:23:57.931Z,51.47
2018-03-01T02:26:25.454Z,51.15
2018-03-01T02:28:53.903Z,51.68
2018-03-01T02:31:21.508Z,51.69
2018-03-01T02:33:49.140Z,51.75
2018-03-01T02:39:16.719Z,51.18
2018-03-01T02:41:44.274Z,51.90
2018-03-01T02:44:11.797Z,51.70
2018-03-01T02:46:39.344Z,51.50
2018-03-01T02:49:06.878Z,51.59
2018-03-01T02:51:34.462Z,51.62
2018-03-01T02:54:02.007Z,51.71
2018-03-01T02:56:29.540Z,51.66
2018-03-01T02:58:57.144Z,51.57
2018-03-01T03:01:24.645Z,52.09
2018-03-01T03:03:53.046Z,52.26
2018-03-01T03:06:20.543Z,52.67
2018-03-01T03:08:48.079Z,51.97
2018-03-01T03:11:16.105Z,52.14
2018-03-01T03:13:43.630Z,52.21
2018-03-01T03:16:11.145Z,52.15
2018-03-01T03:18:38.667Z,52.11
2018-03-01T03:21:06.247Z,52.36
2018-03-01T03:23:33.801Z,52.26
2018-03-01T03:26:01.315Z,52.48
2018-03-01T03:28:28.837Z,52.03
2018-03-01T03:30:56.351Z,52.08
2018-03-01T03:33:23.898Z,51.77
2018-03-01T03:35:51.379Z,51.78
2018-03-01T03:38:18.945Z,51.81
2018-03-01T03:40:46.476Z,51.76
2018-03-01T03:43:13.993Z,51.96
2018-03-01T03:45:41.541Z,51.41
2018-03-01T03:48:09.118Z,51.66
2018-03-01T03:50:36.624Z,51.40
2018-03-01T03:53:04.164Z,51.70
2018-03-01T03:55:31.737Z,51.60
2018-03-01T03:57:59.296Z,51.09
2018-03-01T04:00:27.293Z,51.57
2018-03-01T04:02:54.811Z,51.54
2018-03-01T04:05:22.332Z,51.72
2018-03-01T04:07:49.926Z,51.50
2018-03-01T04:10:17.466Z,51.27
2018-03-01T04:12:45.017Z,51.48
2018-03-01T04:15:12.563Z,51.46
2018-03-01T04:17:41.014Z,51.77
2018-03-01T04:20:09.029Z,51.83
2018-03-01T04:22:36.560Z,51.61
2018-03-01T04:25:04.112Z,51.71
2018-03-01T04:27:32.042Z,51.37
2018-03-01T04:30:00.004Z,51.27
2018-03-01T04:32:28.131Z,51.81
2018-03-01T04:34:55.639Z,51.56
2018-03-01T04:37:23.195Z,51.25
2018-03-01T04:39:50.713Z,51.31
2018-03-01T04:42:18.214Z,51.44
2018-03-01T04:44:45.739Z,51.21
2018-03-01T04:47:13.250Z,51.24
2018-03-01T04:49:40.849Z,51.00
2018-03-01T04:52:08.364Z,51.08
2018-03-01T04:54:36.346Z,50.73
2018-03-01T04:57:03.848Z,50.26
2018-03-01T04:59:31.418Z,50.67
2018-03-01T05:01:59.092Z,50.87
2018-03-01T05:04:27.034Z,50.41
2018-03-01T05:06:54.579Z,50.36
2018-03-01T05:09:22.094Z,50.15
2018-03-01T05:11:49.599Z,50.41
2018-03-01T05:14:17.678Z,50.25
2018-03-01T05:16:45.180Z,50.00
2018-03-01T05:19:12.746Z,50.13
2018-03-01T05:21:40.250Z,50.07
2018-03-01T05:24:07.762Z,49.96
2018-03-01T05:26:35.262Z,50.09
2018-03-01T05:29:02.756Z,49.73
2018-03-01T05:31:30.267Z,50.58
2018-03-01T05:33:57.846Z,49.68
2018-03-01T05:36:25.352Z,49.47
2018-03-01T05:38:52.998Z,49.57
2018-03-01T05:41:20.528Z,49.93
2018-03-01T05:43:48.101Z,49.97
2018-03-01T05:46:15.603Z,50.04
2018-03-01T05:48:43.188Z,50.32
2018-03-01T05:51:10.725Z,49.79
2018-03-01T05:53:38.299Z,49.88
2018-03-01T05:56:05.849Z,49.79
2018-03-01T05:58:33.357Z,49.88
2018-03-01T06:01:00.874Z,49.74
2018-03-01T06:03:28.368Z,50.17
2018-03-01T06:05:55.908Z,50.18
2018-03-01T06:08:24.386Z,50.06
2018-03-01T06:10:51.940Z,50.27
2018-03-01T06:13:19.478Z,50.33
2018-03-01T06:15:46.973Z,50.27
2018-03-01T06:18:14.486Z,50.47
2018-03-01T06:20:41.982Z,50.22
2018-03-01T06:23:09.491Z,50.25
2018-03-01T06:25:37.028Z,50.04
2018-03-01T06:28:04.587Z,50.09
2018-03-01T06:30:32.132Z,50.31
2018-03-01T06:32:59.633Z,49.63
2018-03-01T06:35:27.183Z,50.22
2018-03-01T06:37:54.776Z,49.63
2018-03-01T06:40:22.308Z,49.65
2018-03-01T06:42:49.812Z,49.38
2018-03-01T06:45:17.371Z,49.18
2018-03-01T06:47:44.876Z,49.27
2018-03-01T06:50:12.383Z,49.09
2018-03-01T06:52:39.900Z,48.49
2018-03-01T06:55:07.421Z,48.47
2018-03-01T06:57:34.948Z,47.97
2018-03-01T07:00:02.445Z,48.04
2018-03-01T07:02:29.996Z,47.99
2018-03-01T07:04:57.528Z,47.60
2018-03-01T07:07:25.048Z,47.40
2018-03-01T07:09:52.597Z,46.93
2018-03-01T07:12:20.094Z,46.88
2018-03-01T07:14:47.602Z,47.73
2018-03-01T07:17:15.132Z,47.05
2018-03-01T07:19:42.653Z,46.52
2018-03-01T07:22:10.197Z,45.96
2018-03-01T07:24:37.687Z,46.47
2018-03-01T07:27:05.964Z,45.70
2018-03-01T07:29:33.623Z,45.40
2018-03-01T07:32:01.413Z,45.51
2018-03-01T07:34:28.976Z,45.02
2018-03-01T07:36:56.510Z,44.91
2018-03-01T07:39:24.023Z,45.43
2018-03-01T07:41:51.596Z,45.32
2018-03-01T07:44:19.101Z,45.18
2018-03-01T07:46:46.632Z,44.90
2018-03-01T07:49:14.150Z,44.38
2018-03-01T07:51:41.659Z,44.62
2018-03-01T07:54:09.243Z,44.27
2018-03-01T07:56:36.813Z,44.06
2018-03-01T07:59:04.331Z,43.48
2018-03-01T08:01:31.844Z,43.81
2018-03-01T08:03:59.419Z,43.32
2018-03-01T08:06:26.927Z,42.75
2018-03-01T08:08:54.436Z,42.75
2018-03-01T08:11:22.027Z,42.57
2018-03-01T08:13:49.536Z,41.28
2018-03-01T08:16:17.093Z,41.44
2018-03-01T08:18:44.608Z,41.54
2018-03-01T08:21:12.127Z,41.03
2018-03-01T08:23:39.658Z,41.46
2018-03-01T08:26:07.180Z,40.18
2018-03-01T08:28:34.664Z,39.56
2018-03-01T08:31:02.174Z,38.94
2018-03-01T08:33:29.710Z,38.55
2018-03-01T08:35:57.274Z,38.71
2018-03-01T08:38:24.790Z,38.51
2018-03-01T08:40:52.281Z,38.96
2018-03-01T08:43:19.795Z,38.03
2018-03-01T08:45:47.292Z,38.20
2018-03-01T08:48:14.821Z,38.00
2018-03-01T08:50:42.321Z,38.09
2018-03-01T08:53:09.851Z,38.40
2018-03-01T08:55:37.366Z,37.78
2018-03-01T08:58:04.874Z,37.53
2018-03-01T09:00:32.391Z,38.20
2018-03-01T09:02:59.904Z,38.25
2018-03-01T09:05:27.451Z,38.09
2018-03-01T09:07:54.977Z,36.89
2018-03-01T09:10:22.476Z,37.54
2018-03-01T09:12:49.995Z,36.90
2018-03-01T09:15:17.508Z,36.57
2018-03-01T09:17:45.083Z,37.77
2018-03-01T09:20:12.575Z,36.35
2018-03-01T09:22:40.060Z,36.10
2018-03-01T09:25:07.565Z,36.57
2018-03-01T09:27:35.086Z,36.36
2018-03-01T09:30:02.684Z,36.23
2018-03-01T09:32:30.190Z,35.40
2018-03-01T09:34:57.711Z,35.46
2018-03-01T09:37:25.232Z,35.80
2018-03-01T09:39:52.760Z,34.18
2018-03-01T09:42:20.281Z,34.84
2018-03-01T09:44:47.802Z,34.19
2018-03-01T09:47:15.313Z,34.06
2018-03-01T09:49:42.857Z,32.93
2018-03-01T09:52:10.372Z,33.74
2018-03-01T09:54:37.906Z,33.19
2018-03-01T09:57:05.428Z,33.41
2018-03-01T09:59:32.910Z,32.84
2018-03-01T10:02:00.403Z,32.31
2018-03-01T10:04:28.819Z,32.99
2018-03-01T10:06:56.369Z,32.50
2018-03-01T10:09:23.866Z,32.33
2018-03-01T10:11:51.392Z,31.87
2018-03-01T10:14:18.910Z,32.03
2018-03-01T10:16:46.463Z,31.53
2018-03-01T10:19:14.007Z,30.54
2018-03-01T10:21:41.518Z,31.20
2018-03-01T10:24:09.035Z,31.35
2018-03-01T10:26:36.541Z,30.57
2018-03-01T10:29:04.111Z,29.80
2018-03-01T10:31:31.636Z,29.17
2018-03-01T10:33:59.212Z,30.04
2018-03-01T10:36:26.743Z,30.91
2018-03-01T10:38:54.245Z,30.47
2018-03-01T10:41:21.774Z,31.03
2018-03-01T10:43:49.274Z,29.64
2018-03-01T10:46:16.838Z,30.67
2018-03-01T10:48:44.419Z,30.30
2018-03-01T10:51:11.929Z,29.44
2018-03-01T10:53:39.527Z,29.36
2018-03-01T10:56:07.050Z,31.10
2018-03-01T10:58:35.382Z,30.27
2018-03-01T11:01:02.906Z,30.87
2018-03-01T11:03:30.405Z,29.72
2018-03-01T11:05:57.975Z,31.18
2018-03-01T11:08:25.551Z,31.00
2018-03-01T11:10:53.085Z,29.98
2018-03-01T11:13:20.632Z,31.09
2018-03-01T11:15:48.151Z,31.01
2018-03-01T11:18:15.669Z,31.38
2018-03-01T11:20:43.142Z,31.77
2018-03-01T11:23:10.654Z,30.88
2018-03-01T11:25:38.212Z,31.41
2018-03-01T11:28:05.729Z,31.40
2018-03-01T11:30:33.990Z,32.67
2018-03-01T11:33:01.529Z,31.64
2018-03-01T11:35:29.030Z,32.59
2018-03-01T11:37:56.693Z,31.76
2018-03-01T11:40:24.269Z,31.40
2018-03-01T11:42:51.778Z,30.85
2018-03-01T11:45:19.316Z,31.27
2018-03-01T11:47:46.874Z,30.05
2018-03-01T11:50:14.360Z,30.90
2018-03-01T11:52:41.961Z,30.62
2018-03-01T11:55:09.513Z,30.21
2018-03-01T11:57:37.055Z,28.47
2018-03-01T12:00:04.568Z,28.44
2018-03-01T12:02:32.110Z,28.39
2018-03-01T12:04:59.657Z,27.42
2018-03-01T12:07:27.192Z,26.37
2018-03-01T12:09:54.776Z,25.95
2018-03-01T12:12:22.294Z,25.40
2018-03-01T12:14:49.810Z,24.73
2018-03-01T12:17:17.304Z,24.42
2018-03-01T12:19:44.895Z,23.55
2018-03-01T12:22:13.336Z,23.30
2018-03-01T12:24:40.878Z,23.34
2018-03-01T12:27:08.402Z,22.57
2018-03-01T12:29:35.917Z,21.54
2018-03-01T12:32:03.414Z,21.89
2018-03-01T12:34:30.917Z,21.35
2018-03-01T12:36:58.441Z,19.47
2018-03-01T12:39:25.940Z,17.59
2018-03-01T12:41:53.449Z,17.26
2018-03-01T12:44:20.981Z,15.72
2018-03-01T12:46:48.873Z,15.63
2018-03-01T12:49:16.404Z,14.79
2018-03-01T12:51:43.905Z,15.52
2018-03-01T12:54:11.410Z,15.32
2018-03-01T12:56:38.909Z,15.16
2018-03-01T12:59:06.406Z,16.59
2018-03-01T13:01:33.925Z,17.63
2018-03-01T13:04:04.050Z,17.84
2018-03-01T13:06:31.543Z,19.66
2018-03-01T13:08:59.063Z,21.37
2018-03-01T13:11:26.642Z,21.82
2018-03-01T13:13:54.151Z,22.64
2018-03-01T13:16:22.067Z,23.32
2018-03-01T13:18:49.635Z,25.34
2018-03-01T13:21:17.219Z,24.83
2018-03-01T13:23:44.825Z,24.91
2018-03-01T13:26:13.003Z,25.48
2018-03-01T13:28:40.578Z,26.13
2018-03-01T13:31:16.250Z,25.48
2018-03-01T13:36:46.408Z,25.20
2018-03-01T13:39:13.998Z,24.34
2018-03-01T13:41:42.714Z,22.93
2018-03-01T13:44:10.232Z,23.02
2018-03-01T13:46:41.087Z,24.01
2018-03-01T13:49:08.645Z,24.60
2018-03-01T13:51:36.167Z,24.50
2018-03-01T13:54:03.792Z,24.35
2018-03-01T13:56:31.776Z,25.00
2018-03-01T13:58:59.428Z,24.50
2018-03-01T14:01:28.982Z,24.48
2018-03-01T14:03:56.535Z,24.08
2018-03-01T14:09:26.126Z,25.08
2018-03-01T14:11:53.641Z,24.48
2018-03-01T14:14:21.555Z,25.45
2018-03-01T14:16:49.881Z,25.63
2018-03-01T14:19:17.412Z,25.70
2018-03-01T14:22:05.582Z,25.74
2018-03-01T14:24:33.075Z,26.60
2018-03-01T14:27:06.309Z,26.35
2018-03-01T14:32:34.628Z,26.25
2018-03-01T14:35:02.212Z,26.67
2018-03-01T14:37:29.768Z,27.53
2018-03-01T14:39:57.287Z,27.31
2018-03-01T14:42:24.826Z,27.50
2018-03-01T14:44:52.374Z,27.49
2018-03-01T14:47:19.889Z,28.09
2018-03-01T14:49:47.441Z,28.42
2018-03-01T14:52:15.641Z,28.52
2018-03-01T14:54:43.186Z,28.50
2018-03-01T14:57:10.684Z,28.76
2018-03-01T14:59:38.203Z,29.32
2018-03-01T15:02:05.909Z,29.32
2018-03-01T15:04:33.425Z,29.28
2018-03-01T15:07:00.920Z,29.40
2018-03-01T15:09:28.449Z,29.45
2018-03-01T15:11:56.331Z,29.53
2018-03-01T15:14:23.903Z,30.04
2018-03-01T15:16:51.407Z,30.70
2018-03-01T15:19:18.933Z,30.82
2018-03-01T15:21:46.453Z,31.04
2018-03-01T15:24:14.018Z,31.51
2018-03-01T15:26:41.552Z,31.52
2018-03-01T15:29:09.066Z,31.68
2018-03-01T15:31:36.598Z,32.24
2018-03-01T15:34:04.152Z,32.39
2018-03-01T15:36:31.714Z,31.13
2018-03-01T15:38:59.249Z,31.96
2018-03-01T15:41:26.748Z,32.86
2018-03-01T15:43:54.332Z,33.35
2018-03-01T15:46:21.868Z,33.69
2018-03-01T15:48:49.354Z,33.46
2018-03-01T15:51:16.864Z,33.90
2018-03-01T15:53:44.372Z,33.38
2018-03-01T15:56:11.881Z,33.74
2018-03-01T15:58:39.398Z,34.13
2018-03-01T16:01:06.904Z,34.12
2018-03-01T16:03:34.425Z,35.11
2018-03-01T16:06:01.939Z,34.92
2018-03-01T16:08:29.417Z,34.89
2018-03-01T16:10:56.932Z,35.01
2018-03-01T16:13:24.480Z,34.79
2018-03-01T16:15:52.024Z,35.04
2018-03-01T16:18:19.546Z,35.31
2018-03-01T16:20:47.144Z,34.99
2018-03-01T16:23:14.667Z,35.50
2018-03-01T16:25:42.173Z,35.66
2018-03-01T16:28:09.680Z,36.18
2018-03-01T16:30:37.211Z,36.02
2018-03-01T16:33:04.740Z,36.56
2018-03-01T16:35:32.226Z,36.22
2018-03-01T16:37:59.774Z,36.04
2018-03-01T16:40:27.264Z,36.35
2018-03-01T16:42:54.767Z,36.30
2018-03-01T16:45:22.276Z,36.22
2018-03-01T16:47:49.783Z,36.42
2018-03-01T16:50:17.284Z,36.80
2018-03-01T16:52:44.830Z,36.81
2018-03-01T16:55:12.437Z,37.00
2018-03-01T16:57:39.965Z,37.08
2018-03-01T17:00:07.462Z,37.19
2018-03-01T17:02:35.010Z,37.20
2018-03-01T17:05:02.542Z,37.37
2018-03-01T17:07:30.059Z,37.32
2018-03-01T17:09:57.603Z,37.21
2018-03-01T17:12:25.150Z,37.52
2018-03-01T17:14:52.730Z,37.78
2018-03-01T17:17:20.271Z,37.81
2018-03-01T17:19:47.820Z,37.80
2018-03-01T17:22:15.384Z,38.05
2018-03-01T17:24:42.930Z,38.42
2018-03-01T17:27:10.474Z,38.23
2018-03-01T17:29:37.996Z,38.48
2018-03-01T17:32:05.508Z,37.88
2018-03-01T17:34:33.067Z,38.46
2018-03-01T17:37:00.709Z,38.54
2018-03-01T17:39:28.286Z,38.36
2018-03-01T17:41:55.880Z,38.91
2018-03-01T17:44:23.427Z,38.56
2018-03-01T17:46:50.991Z,38.72
2018-03-01T17:49:18.563Z,38.89
2018-03-01T17:51:46.152Z,38.90
2018-03-01T17:54:13.711Z,39.15
2018-03-01T17:56:41.202Z,39.16
2018-03-01T17:59:08.704Z,39.42
2018-03-01T18:01:36.276Z,39.43
2018-03-01T18:04:03.901Z,40.01
2018-03-01T18:06:31.396Z,39.68
2018-03-01T18:08:59.908Z,40.00
2018-03-01T18:11:27.479Z,40.22
2018-03-01T18:13:57.960Z,40.29
2018-03-01T18:16:25.496Z,40.88
2018-03-01T18:18:53.031Z,40.53
2018-03-01T18:21:20.556Z,40.66
2018-03-01T18:23:48.064Z,41.74
2018-03-01T18:26:15.602Z,41.68
2018-03-01T18:28:43.112Z,41.15
2018-03-01T18:31:10.678Z,40.82
2018-03-01T18:33:39.422Z,41.29
2018-03-01T18:36:07.095Z,41.26
2018-03-01T18:38:34.678Z,41.04
2018-03-01T18:41:02.379Z,40.96
2018-03-01T18:43:29.963Z,41.27
2018-03-01T18:45:57.632Z,41.48
2018-03-01T18:48:25.212Z,41.17
2018-03-01T18:50:52.753Z,41.12
2018-03-01T18:53:20.317Z,41.38
2018-03-01T18:55:47.849Z,41.82
2018-03-01T18:58:15.359Z,41.85
2018-03-01T19:00:42.908Z,42.27
2018-03-01T19:03:10.421Z,42.14
2018-03-01T19:05:38.031Z,41.90
2018-03-01T19:08:05.620Z,41.65
2018-03-01T19:10:33.135Z,41.50
2018-03-01T19:13:00.646Z,42.30
2018-03-01T19:15:29.312Z,41.82
2018-03-01T19:17:56.890Z,42.19
2018-03-01T19:20:24.687Z,41.86
2018-03-01T19:22:52.344Z,41.98
2018-03-01T19:25:19.898Z,42.60
2018-03-01T19:27:47.424Z,42.57
2018-03-01T19:30:15.031Z,42.48
2018-03-01T19:32:42.618Z,41.95
2018-03-01T19:35:11.316Z,42.65
2018-03-01T19:37:38.864Z,42.13
2018-03-01T19:40:06.373Z,42.51
2018-03-01T19:42:34.003Z,41.82
2018-03-01T19:45:01.496Z,41.85
2018-03-01T19:47:29.019Z,42.37
2018-03-01T19:49:57.910Z,41.98
2018-03-01T19:52:25.459Z,42.47
2018-03-01T19:54:53.007Z,42.79
2018-03-01T19:57:20.553Z,41.99
2018-03-01T19:59:48.102Z,42.59
2018-03-01T20:02:15.632Z,42.26
2018-03-01T20:04:43.161Z,42.10
2018-03-01T20:07:10.721Z,42.42
2018-03-01T20:09:38.237Z,42.45
2018-03-01T20:12:05.760Z,42.45
2018-03-01T20:14:33.306Z,42.04
2018-03-01T20:17:00.885Z,42.82
2018-03-01T20:19:28.405Z,42.87
2018-03-01T20:21:55.940Z,42.80
2018-03-01T20:24:23.484Z,42.53
2018-03-01T20:26:51.014Z,42.65
2018-03-01T20:29:18.549Z,42.65
2018-03-01T20:31:46.057Z,43.40
2018-03-01T20:34:13.629Z,43.22
2018-03-01T20:36:41.173Z,43.05
2018-03-01T20:39:08.830Z,43.40
2018-03-01T20:41:36.365Z,43.63
2018-03-01T20:44:03.885Z,43.46
2018-03-01T20:46:31.418Z,43.68
2018-03-01T20:48:58.906Z,43.83
2018-03-01T20:51:26.429Z,43.52
2018-03-01T20:53:53.921Z,43.64
2018-03-01T20:56:21.423Z,43.80
2018-03-01T20:58:49.114Z,44.11
2018-03-01T21:01:16.665Z,44.91
2018-03-01T21:03:44.180Z,44.27
2018-03-01T21:06:11.749Z,44.99
2018-03-01T21:08:39.298Z,44.35
2018-03-01T21:11:06.808Z,44.42
2018-03-01T21:13:34.341Z,44.94
2018-03-01T21:16:01.863Z,44.52
2018-03-01T21:18:29.382Z,44.80
2018-03-01T21:20:56.961Z,44.31
2018-03-01T21:23:24.567Z,44.58
2018-03-01T21:25:52.074Z,44.52
2018-03-01T21:28:19.711Z,44.51
2018-03-01T21:30:47.285Z,44.43
2018-03-01T21:33:14.803Z,45.40
2018-03-01T21:35:42.364Z,45.60
2018-03-01T21:38:09.891Z,45.54
2018-03-01T21:40:37.462Z,45.61
2018-03-01T21:43:05.011Z,45.11
2018-03-01T21:45:32.557Z,45.62
2018-03-01T21:48:00.072Z,45.72
2018-03-01T21:50:27.569Z,45.73
2018-03-01T21:52:59.581Z,46.13
2018-03-01T21:55:27.175Z,45.89
2018-03-01T21:57:54.708Z,45.98
2018-03-01T22:00:22.285Z,46.32
2018-03-01T22:02:49.816Z,46.25
2018-03-01T22:05:17.328Z,46.37
2018-03-01T22:07:53.752Z,46.69
2018-03-01T22:10:21.306Z,46.18
2018-03-01T22:12:48.850Z,46.62
2018-03-01T22:15:18.227Z,46.90
2018-03-01T22:17:45.872Z,47.05
2018-03-01T22:20:13.852Z,46.93
2018-03-01T22:22:41.461Z,46.75
2018-03-01T22:25:09.034Z,46.92
2018-03-01T22:27:36.564Z,46.98
2018-03-01T22:30:04.288Z,47.04
2018-03-01T22:32:32.023Z,47.10
2018-03-01T22:35:01.590Z,47.01
2018-03-01T22:37:30.020Z,46.98
2018-03-01T22:39:57.667Z,47.80
2018-03-01T22:42:25.173Z,47.65
2018-03-01T22:44:52.758Z,47.61
2018-03-01T22:47:20.266Z,47.84
2018-03-01T22:49:47.794Z,48.08
2018-03-01T22:52:15.355Z,48.37
2018-03-01T22:54:42.868Z,48.72
2018-03-01T22:57:10.429Z,48.79
2018-03-01T22:59:37.963Z,48.59
2018-03-01T23:02:05.567Z,48.38
2018-03-01T23:04:33.102Z,48.68
2018-03-01T23:07:00.649Z,48.61
2018-03-01T23:09:28.195Z,48.53
2018-03-01T23:11:55.708Z,48.93
2018-03-01T23:14:23.237Z,49.06
2018-03-01T23:16:50.812Z,49.08
2018-03-01T23:19:18.376Z,49.44
2018-03-01T23:21:45.866Z,49.70
2018-03-01T23:24:13.369Z,49.71
2018-03-01T23:26:40.883Z,49.59
2018-03-01T23:29:08.426Z,49.70
2018-03-01T23:31:35.950Z,50.18
2018-03-01T23:34:03.477Z,50.43
2018-03-01T23:36:30.983Z,50.09
2018-03-01T23:38:58.492Z,50.31
2018-03-01T23:41:26.056Z,50.12
2018-03-01T23:43:53.592Z,50.57
2018-03-01T23:46:21.110Z,50.84
2018-03-01T23:48:48.623Z,50.60
2018-03-01T23:51:16.135Z,50.53
2018-03-01T23:53:43.715Z,51.28
2018-03-01T23:56:11.234Z,51.37
2018-03-01T23:58:38.770Z,51.17
